createdAt,value
2023-03-22T00:02:03.791Z,9.91
2023-03-22T00:04:30.192Z,9.79
2023-03-22T00:06:56.717Z,9.68
2023-03-22T00:09:23.333Z,9.53
2023-03-22T00:11:49.753Z,9.45
2023-03-22T00:14:16.137Z,9.40
2023-03-22T00:16:42.554Z,9.34
2023-03-22T00:19:08.973Z,9.31
2023-03-22T00:21:35.329Z,9.29
2023-03-22T00:24:01.711Z,9.29
2023-03-22T00:26:28.140Z,9.32
2023-03-22T00:28:54.508Z,9.35
2023-03-22T00:31:20.918Z,9.34
2023-03-22T00:33:47.308Z,9.29
2023-03-22T00:36:13.707Z,9.25
2023-03-22T00:38:44.224Z,9.22
2023-03-22T00:41:10.909Z,9.18
2023-03-22T00:43:37.295Z,9.20
2023-03-22T00:46:03.690Z,9.13
2023-03-22T00:48:30.122Z,8.98
2023-03-22T00:50:56.519Z,8.90
2023-03-22T00:53:22.931Z,8.78
2023-03-22T00:55:49.300Z,8.72
2023-03-22T00:58:16.658Z,8.66
2023-03-22T01:00:43.161Z,8.66
2023-03-22T01:03:09.589Z,8.62
2023-03-22T01:05:35.961Z,8.57
2023-03-22T01:08:02.442Z,8.55
2023-03-22T01:10:28.836Z,8.49
2023-03-22T01:12:57.329Z,8.35
2023-03-22T01:15:23.727Z,8.31
2023-03-22T01:17:50.143Z,8.23
2023-03-22T01:20:18.994Z,8.12
2023-03-22T01:22:45.389Z,8.07
2023-03-22T01:25:11.765Z,8.03
2023-03-22T01:27:40.184Z,8.00
2023-03-22T01:30:06.678Z,7.99
2023-03-22T01:32:33.259Z,7.97
2023-03-22T01:34:59.612Z,7.94
2023-03-22T01:37:25.966Z,7.86
2023-03-22T01:39:54.656Z,7.87
2023-03-22T01:42:21.090Z,7.74
2023-03-22T01:44:47.561Z,7.60
2023-03-22T01:47:13.991Z,7.50
2023-03-22T01:49:42.663Z,7.44
2023-03-22T01:52:09.016Z,7.40
2023-03-22T01:54:35.383Z,7.39
2023-03-22T01:57:03.750Z,7.39
2023-03-22T01:59:31.588Z,7.37
2023-03-22T02:01:58.064Z,7.29
2023-03-22T02:04:24.423Z,7.23
2023-03-22T02:06:51.792Z,7.19
2023-03-22T02:09:19.304Z,7.15
2023-03-22T02:11:45.712Z,7.04
2023-03-22T02:14:12.098Z,6.70
2023-03-22T02:16:39.030Z,6.76
2023-03-22T02:19:05.426Z,6.83
2023-03-22T02:21:32.633Z,6.91
2023-03-22T02:23:58.985Z,6.90
2023-03-22T02:26:25.348Z,6.94
2023-03-22T02:28:51.749Z,6.96
2023-03-22T02:31:18.260Z,6.98
2023-03-22T02:33:46.862Z,6.98
2023-03-22T02:36:13.642Z,6.92
2023-03-22T02:38:40.124Z,6.81
2023-03-22T02:41:06.777Z,6.76
2023-03-22T02:43:33.187Z,6.72
2023-03-22T02:45:59.925Z,6.71
2023-03-22T02:48:27.319Z,6.70
2023-03-22T02:50:53.683Z,6.67
2023-03-22T02:53:20.087Z,6.63
2023-03-22T02:55:46.480Z,6.57
2023-03-22T02:58:12.959Z,6.57
2023-03-22T03:00:39.803Z,6.45
2023-03-22T03:03:09.442Z,6.39
2023-03-22T03:05:38.909Z,6.34
2023-03-22T03:08:05.492Z,6.29
2023-03-22T03:10:31.927Z,6.29
2023-03-22T03:12:58.274Z,6.25
2023-03-22T03:15:26.884Z,6.15
2023-03-22T03:17:53.281Z,6.09
2023-03-22T03:20:19.623Z,6.08
2023-03-22T03:22:45.966Z,6.05
2023-03-22T03:25:14.661Z,6.06
2023-03-22T03:27:42.090Z,5.95
2023-03-22T03:30:08.684Z,5.93
2023-03-22T03:32:35.048Z,5.88
2023-03-22T03:35:01.502Z,5.74
2023-03-22T03:37:28.086Z,5.70
2023-03-22T03:39:54.443Z,5.64
2023-03-22T03:42:20.864Z,5.57
2023-03-22T03:44:47.234Z,5.48
2023-03-22T03:47:13.791Z,5.49
2023-03-22T03:49:40.403Z,5.53
2023-03-22T03:52:06.760Z,5.53
2023-03-22T03:54:33.145Z,5.57
2023-03-22T03:56:59.602Z,5.60
2023-03-22T03:59:26.342Z,5.66
2023-03-22T04:01:53.069Z,5.65
2023-03-22T04:04:19.628Z,5.58
2023-03-22T04:06:46.370Z,5.56
2023-03-22T04:09:12.858Z,5.44
2023-03-22T04:11:39.733Z,5.41
2023-03-22T04:14:06.132Z,5.37
2023-03-22T04:16:32.534Z,5.30
2023-03-22T04:18:59.082Z,5.25
2023-03-22T04:21:25.477Z,5.16
2023-03-22T04:23:51.892Z,5.13
2023-03-22T04:26:21.225Z,5.15
2023-03-22T04:28:47.698Z,5.08
2023-03-22T04:31:14.130Z,5.03
2023-03-22T04:33:40.493Z,5.02
2023-03-22T04:36:06.874Z,5.07
2023-03-22T04:38:33.235Z,5.04
2023-03-22T04:40:59.755Z,5.06
2023-03-22T04:43:26.122Z,5.04
2023-03-22T04:45:52.639Z,5.01
2023-03-22T04:48:19.067Z,5.04
2023-03-22T04:50:45.532Z,5.08
2023-03-22T04:53:12.112Z,5.12
2023-03-22T04:55:38.507Z,5.11
2023-03-22T04:58:05.213Z,5.03
2023-03-22T05:00:31.599Z,4.91
2023-03-22T05:02:58.141Z,4.84
2023-03-22T05:05:24.899Z,4.83
2023-03-22T05:07:53.501Z,4.84
2023-03-22T05:10:19.945Z,4.82
2023-03-22T05:12:46.341Z,4.78
2023-03-22T05:15:12.881Z,4.71
2023-03-22T05:17:40.516Z,4.64
2023-03-22T05:20:06.982Z,4.63
2023-03-22T05:22:33.324Z,4.63
2023-03-22T05:25:02.011Z,4.66
2023-03-22T05:27:30.950Z,4.55
2023-03-22T05:29:57.350Z,4.46
2023-03-22T05:32:23.767Z,4.40
2023-03-22T05:34:50.153Z,4.35
2023-03-22T05:37:17.542Z,4.31
2023-03-22T05:39:43.891Z,4.35
2023-03-22T05:42:10.747Z,4.24
2023-03-22T05:44:37.197Z,4.25
2023-03-22T05:47:03.791Z,4.26
2023-03-22T05:49:30.237Z,4.26
2023-03-22T05:51:59.131Z,4.21
2023-03-22T05:54:25.471Z,4.26
2023-03-22T05:56:54.002Z,4.24
2023-03-22T05:59:21.704Z,4.28
2023-03-22T06:01:48.159Z,4.29
2023-03-22T06:04:14.557Z,4.35
2023-03-22T06:06:41.962Z,4.40
2023-03-22T06:09:16.950Z,4.44
2023-03-22T06:11:44.125Z,4.51
2023-03-22T06:14:10.966Z,4.55
2023-03-22T06:16:37.398Z,4.57
2023-03-22T06:19:03.825Z,4.57
2023-03-22T06:21:30.560Z,4.54
2023-03-22T06:23:58.947Z,4.58
2023-03-22T06:26:25.519Z,4.55
2023-03-22T06:28:51.896Z,4.56
2023-03-22T06:31:21.205Z,4.58
2023-03-22T06:33:49.942Z,4.69
2023-03-22T06:36:19.070Z,4.80
2023-03-22T06:38:45.423Z,4.80
2023-03-22T06:41:11.900Z,4.81
2023-03-22T06:43:38.336Z,4.95
2023-03-22T06:46:05.086Z,5.00
2023-03-22T06:48:32.481Z,5.04
2023-03-22T06:50:58.861Z,5.10
2023-03-22T06:53:25.303Z,5.13
2023-03-22T06:55:53.741Z,5.22
2023-03-22T06:58:21.685Z,5.35
2023-03-22T07:00:48.089Z,5.39
2023-03-22T07:03:14.605Z,5.48
2023-03-22T07:05:43.085Z,5.57
2023-03-22T07:08:09.484Z,5.72
2023-03-22T07:10:37.030Z,5.95
2023-03-22T07:13:03.479Z,6.10
2023-03-22T07:15:29.994Z,6.22
2023-03-22T07:17:56.392Z,6.37
2023-03-22T07:20:23.019Z,6.56
2023-03-22T07:22:49.372Z,6.77
2023-03-22T07:25:15.739Z,7.00
2023-03-22T07:27:42.091Z,7.17
2023-03-22T07:30:09.810Z,7.31
2023-03-22T07:32:37.428Z,7.40
2023-03-22T07:35:03.827Z,7.47
2023-03-22T07:37:30.442Z,7.55
2023-03-22T07:39:56.991Z,7.70
2023-03-22T07:42:25.713Z,7.76
2023-03-22T07:44:52.189Z,7.93
2023-03-22T07:47:27.201Z,8.08
2023-03-22T07:50:00.635Z,8.24
2023-03-22T07:52:27.021Z,8.61
2023-03-22T07:54:53.376Z,8.81
2023-03-22T07:57:19.747Z,9.05
2023-03-22T07:59:46.083Z,9.27
2023-03-22T08:02:15.072Z,9.53
2023-03-22T08:04:41.466Z,9.63
2023-03-22T08:07:07.843Z,9.81
2023-03-22T08:09:34.463Z,9.91
2023-03-22T08:12:01.772Z,10.03
2023-03-22T08:14:36.370Z,10.21
2023-03-22T08:17:03.539Z,10.45
2023-03-22T08:19:30.224Z,10.50
2023-03-22T08:21:56.557Z,10.59
2023-03-22T08:24:22.961Z,10.60
2023-03-22T08:26:49.354Z,10.78
2023-03-22T08:29:15.782Z,10.89
2023-03-22T08:31:42.217Z,10.90
2023-03-22T08:34:08.661Z,10.91
2023-03-22T08:36:35.040Z,11.05
2023-03-22T08:39:01.387Z,11.31
2023-03-22T08:41:27.774Z,11.57
2023-03-22T08:43:54.193Z,11.63
2023-03-22T08:46:20.630Z,11.83
2023-03-22T08:48:47.063Z,12.02
2023-03-22T08:51:13.420Z,12.06
2023-03-22T08:53:39.897Z,12.14
2023-03-22T08:56:06.264Z,12.38
2023-03-22T08:58:32.615Z,12.45
2023-03-22T09:03:43.105Z,12.87
2023-03-22T09:06:09.507Z,13.01
2023-03-22T09:08:36.079Z,13.06
2023-03-22T09:11:02.705Z,13.17
2023-03-22T09:13:29.050Z,13.42
2023-03-22T09:15:55.470Z,13.49
2023-03-22T09:18:21.842Z,13.79
2023-03-22T09:20:50.569Z,14.09
2023-03-22T09:23:17.002Z,14.18
2023-03-22T09:25:43.451Z,14.31
2023-03-22T09:28:10.923Z,14.32
2023-03-22T09:30:38.630Z,14.42
2023-03-22T09:33:05.202Z,14.39
2023-03-22T09:35:31.688Z,14.55
2023-03-22T09:37:58.149Z,14.61
2023-03-22T09:40:24.723Z,14.68
2023-03-22T09:42:51.110Z,14.53
2023-03-22T09:45:17.493Z,14.52
2023-03-22T09:47:45.351Z,14.63
2023-03-22T09:50:12.326Z,14.73
2023-03-22T09:52:39.572Z,14.92
2023-03-22T09:55:05.931Z,15.11
2023-03-22T09:57:32.304Z,15.27
2023-03-22T09:59:58.877Z,15.45
2023-03-22T10:02:26.294Z,15.47
2023-03-22T10:04:52.674Z,15.67
2023-03-22T10:07:19.117Z,15.65
2023-03-22T10:09:45.501Z,15.62
2023-03-22T10:12:11.854Z,15.84
2023-03-22T10:14:38.230Z,16.07
2023-03-22T10:17:04.576Z,15.98
2023-03-22T10:19:30.972Z,16.00
2023-03-22T10:21:58.386Z,16.10
2023-03-22T10:24:24.756Z,16.32
2023-03-22T10:26:51.138Z,16.58
2023-03-22T10:29:17.593Z,16.75
2023-03-22T10:31:44.000Z,16.63
2023-03-22T10:34:10.595Z,16.89
2023-03-22T10:36:37.000Z,16.82
2023-03-22T10:39:03.368Z,16.97
2023-03-22T10:41:29.704Z,16.70
2023-03-22T10:43:56.086Z,16.38
2023-03-22T10:46:22.457Z,16.22
2023-03-22T10:48:48.958Z,16.18
2023-03-22T10:51:15.324Z,16.39
2023-03-22T10:53:41.685Z,16.04
2023-03-22T10:56:08.078Z,16.23
2023-03-22T10:58:34.449Z,16.49
2023-03-22T11:01:00.953Z,16.62
2023-03-22T11:03:27.430Z,16.69
2023-03-22T11:05:54.218Z,16.79
2023-03-22T11:08:20.588Z,17.06
2023-03-22T11:10:47.024Z,17.28
2023-03-22T11:13:13.455Z,17.50
2023-03-22T11:15:40.046Z,17.24
2023-03-22T11:18:06.749Z,17.45
2023-03-22T11:20:33.191Z,17.70
2023-03-22T11:22:59.615Z,17.80
2023-03-22T11:25:26.008Z,17.88
2023-03-22T11:27:52.377Z,17.73
2023-03-22T11:30:18.834Z,17.57
2023-03-22T11:32:45.858Z,17.58
2023-03-22T11:35:12.628Z,17.37
2023-03-22T11:37:39.045Z,17.37
2023-03-22T11:40:05.510Z,17.56
2023-03-22T11:42:32.131Z,17.77
2023-03-22T11:44:58.537Z,18.02
2023-03-22T11:47:26.035Z,17.78
2023-03-22T11:49:52.637Z,18.02
2023-03-22T11:52:19.082Z,18.01
2023-03-22T11:54:45.496Z,18.10
2023-03-22T11:57:11.973Z,18.23
2023-03-22T11:59:38.821Z,17.67
2023-03-22T12:02:05.311Z,17.56
2023-03-22T12:04:31.984Z,17.41
2023-03-22T12:06:58.416Z,17.36
2023-03-22T12:09:25.779Z,17.19
2023-03-22T12:11:52.406Z,17.41
2023-03-22T12:14:18.844Z,17.44
2023-03-22T12:16:45.735Z,17.79
2023-03-22T12:19:12.144Z,17.88
2023-03-22T12:21:38.595Z,17.89
2023-03-22T12:24:07.009Z,17.73
2023-03-22T12:26:34.043Z,17.86
2023-03-22T12:29:01.474Z,17.76
2023-03-22T12:31:27.980Z,17.99
2023-03-22T12:33:54.413Z,17.97
2023-03-22T12:36:20.878Z,17.99
2023-03-22T12:38:47.258Z,17.98
2023-03-22T12:41:13.650Z,18.23
2023-03-22T12:43:40.038Z,18.14
2023-03-22T12:46:06.465Z,17.91
2023-03-22T12:48:33.001Z,18.19
2023-03-22T12:50:59.509Z,18.24
2023-03-22T12:53:25.961Z,18.26
2023-03-22T12:55:52.573Z,18.42
2023-03-22T12:58:19.124Z,18.65
2023-03-22T13:00:47.562Z,18.45
2023-03-22T13:03:14.093Z,18.34
2023-03-22T13:05:41.073Z,18.16
2023-03-22T13:08:08.097Z,18.42
2023-03-22T13:10:34.449Z,18.50
2023-03-22T13:13:00.890Z,18.28
2023-03-22T13:15:34.734Z,18.07
2023-03-22T13:18:07.517Z,18.37
2023-03-22T13:20:34.059Z,18.45
2023-03-22T13:23:00.668Z,18.57
2023-03-22T13:25:27.073Z,18.87
2023-03-22T13:27:53.977Z,18.87
2023-03-22T13:30:20.441Z,18.75
2023-03-22T13:32:46.906Z,18.92
2023-03-22T13:35:13.474Z,19.05
2023-03-22T13:37:41.026Z,19.00
2023-03-22T13:40:08.438Z,19.04
2023-03-22T13:42:34.789Z,18.73
2023-03-22T13:45:01.205Z,18.38
2023-03-22T13:47:27.697Z,18.56
2023-03-22T13:49:54.181Z,18.83
2023-03-22T13:52:20.559Z,18.99
2023-03-22T13:54:47.056Z,19.00
2023-03-22T13:57:14.234Z,19.18
2023-03-22T13:59:40.565Z,19.32
2023-03-22T14:02:07.054Z,19.44
2023-03-22T14:04:33.554Z,19.38
2023-03-22T14:06:59.907Z,19.39
2023-03-22T14:09:26.306Z,19.69
2023-03-22T14:11:53.603Z,19.69
2023-03-22T14:14:21.151Z,19.53
2023-03-22T14:16:47.482Z,19.16
2023-03-22T14:19:13.871Z,19.10
2023-03-22T14:21:40.251Z,18.89
